Time;durP1;ratioP1;P1;durP2;ratioP2;P2;SDS_P1;SDS_P2;PMS_P1;PMS_P2;Temp;Humidity;BMP_temperature;BMP_pressure;BME280_temperature;BME280_humidity;BME280_pressure;Samples;Min_cycle;Max_cycle;Signal;HPM_P1;HPM_P2
2023/02/06 00:01:24;;;;;;;85.70;41.30;;;;;;;-6.02;77.27;102327.41;103362;1251;139987;-81
2023/02/06 00:03:51;;;;;;;90.90;44.10;;;;;;;-6.03;77.28;102336.31;102599;1254;1003054;-82
2023/02/06 00:06:18;;;;;;;90.00;44.30;;;;;;;-6.03;77.37;102332.41;102546;1256;1003571;-81
2023/02/06 00:08:44;;;;;;;82.60;43.00;;;;;;;-6.02;77.47;102329.64;102662;1254;1002502;-83
2023/02/06 00:11:15;;;;;;;85.40;42.30;;;;;;;-6.01;77.87;102321.52;102631;1254;1003410;-83
2023/02/06 00:13:43;;;;;;;85.50;42.50;;;;;;;-6.01;77.64;102323.89;103379;1254;99577;-82
2023/02/06 00:16:17;;;;;;;89.20;43.20;;;;;;;-6.01;77.45;102325.42;103482;1254;107660;-83
2023/02/06 00:18:44;;;;;;;80.70;42.10;;;;;;;-6.00;77.70;102327.17;103224;1256;1002820;-83
2023/02/06 00:21:12;;;;;;;84.00;41.80;;;;;;;-6.00;77.66;102328.04;102722;1254;1002568;-83
2023/02/06 00:23:39;;;;;;;87.70;43.60;;;;;;;-5.98;77.79;102332.40;103285;1254;139244;-82
2023/02/06 00:26:07;;;;;;;84.50;40.90;;;;;;;-5.98;77.81;102328.35;102695;1254;1002672;-81
2023/02/06 00:28:35;;;;;;;83.10;41.40;;;;;;;-5.97;77.69;102329.41;103407;1251;107654;-81
2023/02/06 00:31:04;;;;;;;83.50;40.40;;;;;;;-5.96;77.82;102328.13;102650;1254;1003096;-83
2023/02/06 00:33:31;;;;;;;81.20;40.10;;;;;;;-5.95;77.95;102330.20;102738;1251;1003286;-81
2023/02/06 00:35:58;;;;;;;86.50;42.10;;;;;;;-5.95;77.91;102330.23;102530;1251;1002858;-81
2023/02/06 00:38:27;;;;;;;83.40;40.70;;;;;;;-5.95;78.01;102335.79;101955;1251;1003464;-81
2023/02/06 00:40:55;;;;;;;81.20;41.20;;;;;;;-5.96;77.98;102341.36;103445;1254;106286;-82
2023/02/06 00:43:22;;;;;;;89.60;44.00;;;;;;;-5.97;78.03;102335.04;103276;1254;139620;-81
2023/02/06 00:45:54;;;;;;;88.40;42.20;;;;;;;-5.96;77.98;102328.98;103403;1254;110519;-81
2023/02/06 00:48:21;;;;;;;81.20;40.30;;;;;;;-5.96;78.23;102330.35;102514;1256;1002834;-81
2023/02/06 00:50:49;;;;;;;87.50;42.80;;;;;;;-5.96;78.06;102331.90;103390;1257;97797;-83
2023/02/06 00:53:16;;;;;;;90.50;43.40;;;;;;;-5.93;78.35;102332.06;102667;1254;1003758;-82
2023/02/06 00:55:43;;;;;;;89.50;42.50;;;;;;;-5.91;78.14;102327.33;103381;1254;99754;-83
2023/02/06 00:58:11;;;;;;;93.00;44.60;;;;;;;-5.92;78.37;102328.95;103453;1251;111055;-83
2023/02/06 01:00:40;;;;;;;87.60;43.40;;;;;;;-5.92;78.34;102326.75;103246;1254;138992;-83
2023/02/06 01:03:07;;;;;;;91.60;46.70;;;;;;;-5.92;78.18;102322.48;102634;1256;1003635;-82
2023/02/06 01:05:35;;;;;;;87.10;43.40;;;;;;;-5.95;78.39;102319.26;103317;1257;140472;-82
2023/02/06 01:08:03;;;;;;;92.30;44.20;;;;;;;-5.98;78.24;102321.41;103412;1256;97885;-82
2023/02/06 01:10:30;;;;;;;92.20;44.50;;;;;;;-5.96;78.42;102320.98;103450;1253;111069;-82
2023/02/06 01:12:57;;;;;;;89.60;45.40;;;;;;;-5.93;78.78;102321.59;103313;1257;140670;-82
2023/02/06 01:15:24;;;;;;;94.80;46.10;;;;;;;-5.94;78.66;102317.61;102673;1254;1003344;-81
2023/02/06 01:17:51;;;;;;;94.50;45.80;;;;;;;-5.94;78.63;102311.19;103356;1254;141176;-82
2023/02/06 01:20:20;;;;;;;88.70;46.30;;;;;;;-5.94;78.54;102309.45;102604;1255;1015447;-82
2023/02/06 01:22:47;;;;;;;95.40;46.30;;;;;;;-5.96;78.48;102313.39;103490;1251;111353;-82
2023/02/06 01:25:14;;;;;;;97.30;47.20;;;;;;;-5.96;78.55;102316.61;103082;1254;138922;-83
2023/02/06 01:27:41;;;;;;;104.10;48.80;;;;;;;-5.97;78.39;102312.17;102643;1253;1003317;-82
2023/02/06 01:30:10;;;;;;;98.90;48.80;;;;;;;-5.97;78.56;102311.61;103314;1252;139572;-82
2023/02/06 01:32:39;;;;;;;102.00;49.50;;;;;;;-5.99;78.55;102304.86;103501;1251;97813;-83
2023/02/06 01:35:08;;;;;;;96.20;47.10;;;;;;;-6.02;78.57;102306.06;103381;1253;112233;-79
2023/02/06 01:37:35;;;;;;;96.30;48.10;;;;;;;-6.05;78.34;102307.06;103268;1254;139086;-81
2023/02/06 01:40:02;;;;;;;93.30;46.80;;;;;;;-6.06;78.68;102303.95;103504;1254;97800;-81
2023/02/06 01:42:29;;;;;;;94.00;47.30;;;;;;;-6.07;78.84;102306.21;103297;1254;140275;-81
2023/02/06 01:45:32;;;;;;;96.40;45.80;;;;;;;-6.09;78.70;102304.25;102633;1254;1002664;-81
2023/02/06 01:48:03;;;;;;;90.40;45.30;;;;;;;-6.09;78.78;102301.55;103343;1253;139310;-82
2023/02/06 01:50:32;;;;;;;100.30;47.80;;;;;;;-6.09;78.94;102302.71;103451;1254;108353;-81
2023/02/06 01:53:00;;;;;;;102.70;49.20;;;;;;;-6.10;79.25;102294.40;103246;1252;1003104;-82
2023/02/06 01:55:28;;;;;;;96.20;49.70;;;;;;;-6.10;79.11;102295.20;103406;1254;139309;-82
2023/02/06 01:57:57;;;;;;;102.80;49.10;;;;;;;-6.10;79.25;102292.17;103479;1254;96461;-80
2023/02/06 02:00:24;;;;;;;97.20;47.80;;;;;;;-6.07;79.15;102296.91;103241;1251;139038;-81
2023/02/06 02:02:51;;;;;;;106.00;49.80;;;;;;;-6.03;79.47;102302.63;102706;1256;1003095;-80
2023/02/06 02:05:21;;;;;;;102.70;48.80;;;;;;;-5.98;79.56;102304.30;103438;1256;97785;-80
2023/02/06 02:07:59;;;;;;;111.30;51.40;;;;;;;-5.97;79.22;102303.87;103483;1253;108515;-82
2023/02/06 02:10:27;;;;;;;105.80;51.20;;;;;;;-5.96;79.28;102303.73;103427;1256;97882;-80
2023/02/06 02:12:54;;;;;;;99.10;49.20;;;;;;;-5.98;79.44;102303.23;103387;1254;138792;-80
2023/02/06 02:15:25;;;;;;;100.20;50.50;;;;;;;-6.00;78.93;102296.55;103216;1254;107741;-81
2023/02/06 02:18:02;;;;;;;100.00;49.60;;;;;;;-6.01;79.18;102294.60;102545;1255;1002817;-82
2023/02/06 02:20:49;;;;;;;105.40;50.10;;;;;;;-6.02;78.99;102289.44;103390;1253;107392;-81
2023/02/06 02:23:30;;;;;;;;;;;;;;;-6.09;79.00;102282.73;103404;1252;97701;-82
2023/02/06 02:26:33;;;;;;;106.80;48.70;;;;;;;-6.10;79.04;102286.56;103428;1256;110143;-82
2023/02/06 02:29:23;;;;;;;101.60;49.50;;;;;;;-6.13;79.04;102291.28;102663;1254;1002499;-83
2023/02/06 02:32:08;;;;;;;98.30;47.90;;;;;;;-6.13;79.41;102298.20;103298;1257;139088;-81
2023/02/06 02:34:56;;;;;;;98.60;49.30;;;;;;;-6.11;79.74;102301.41;103437;1254;107290;-82
2023/02/06 02:37:31;;;;;;;105.70;51.00;;;;;;;-6.09;79.36;102301.05;103261;1254;138892;-82
2023/02/06 02:40:05;;;;;;;98.20;49.20;;;;;;;-6.08;79.47;102297.70;103388;1254;110884;-82
2023/02/06 02:42:43;;;;;;;98.90;49.90;;;;;;;-6.11;79.19;102302.74;103319;1256;138916;-82
2023/02/06 02:45:19;;;;;;;102.90;49.70;;;;;;;-6.12;79.26;102302.80;103216;1252;212407;-82
2023/02/06 02:47:51;;;;;;;96.40;47.20;;;;;;;-6.13;79.05;102304.98;102637;1252;1003542;-84
2023/02/06 02:50:21;;;;;;;103.20;49.00;;;;;;;-6.16;79.05;102311.73;103456;1254;97695;-84
2023/02/06 02:52:48;;;;;;;104.20;50.50;;;;;;;-6.17;79.49;102316.25;103297;1254;111983;-83
2023/02/06 02:55:22;;;;;;;102.20;48.70;;;;;;;-6.16;79.30;102314.58;102530;1254;1003440;-83
2023/02/06 02:57:58;;;;;;;104.90;49.20;;;;;;;-6.17;79.40;102309.97;103317;1254;97685;-83
2023/02/06 03:00:26;;;;;;;109.20;49.70;;;;;;;-6.17;79.12;102309.77;103305;1256;138966;-83
2023/02/06 03:02:56;;;;;;;102.80;49.60;;;;;;;-6.18;79.39;102308.34;102486;1254;1002994;-83
2023/02/06 03:05:25;;;;;;;105.60;48.30;;;;;;;-6.19;79.02;102313.69;103231;1251;110851;-83
2023/02/06 03:08:05;;;;;;;98.80;48.70;;;;;;;-6.21;79.16;102315.14;103374;1254;107324;-82
2023/02/06 03:10:39;;;;;;;99.10;47.10;;;;;;;-6.22;79.19;102314.55;103223;1253;98398;-82
2023/02/06 03:13:15;;;;;;;109.10;50.70;;;;;;;-6.23;79.26;102315.86;103106;1257;139689;-82
2023/02/06 03:15:48;;;;;;;101.10;50.00;;;;;;;-6.23;79.08;102309.88;103327;1251;97668;-82
2023/02/06 03:18:23;;;;;;;100.40;48.10;;;;;;;-6.29;79.02;102304.91;103268;1253;138914;-82
2023/02/06 03:20:51;;;;;;;104.60;51.70;;;;;;;-6.33;79.20;102304.45;103822;1257;107301;-82
2023/02/06 03:23:22;;;;;;;105.00;50.70;;;;;;;-6.37;78.94;102300.80;102675;1256;1003047;-82
2023/02/06 03:25:53;;;;;;;109.60;51.70;;;;;;;-6.42;78.97;102298.28;102564;1254;1003641;-83
2023/02/06 03:28:24;;;;;;;103.90;49.20;;;;;;;-6.44;79.23;102299.14;103442;1256;97771;-83
2023/02/06 03:30:56;;;;;;;107.00;51.00;;;;;;;-6.47;79.04;102298.23;103383;1251;138917;-83
2023/02/06 03:33:30;;;;;;;111.30;51.90;;;;;;;-6.51;78.98;102297.27;103428;1251;109636;-84
2023/02/06 03:35:58;;;;;;;107.20;51.10;;;;;;;-6.53;79.16;102299.69;103290;1253;139149;-85
2023/02/06 03:38:27;;;;;;;114.20;54.50;;;;;;;-6.55;79.39;102298.39;103401;1254;110940;-84
2023/02/06 03:40:56;;;;;;;117.80;54.90;;;;;;;-6.56;79.32;102296.09;103768;1252;97919;-84
2023/02/06 03:43:28;;;;;;;109.00;51.10;;;;;;;-6.58;79.31;102293.77;103322;1253;139503;-84
2023/02/06 03:46:00;;;;;;;112.50;53.10;;;;;;;-6.62;78.97;102299.59;103303;1254;107096;-84
2023/02/06 03:48:32;;;;;;;110.70;53.60;;;;;;;-6.65;79.03;102297.98;103254;1255;141122;-83
2023/02/06 03:51:03;;;;;;;113.60;52.30;;;;;;;-6.69;79.28;102295.69;103433;1254;107064;-83
2023/02/06 03:53:32;;;;;;;110.30;51.20;;;;;;;-6.72;79.40;102295.30;102637;1254;1002979;-83
2023/02/06 03:56:05;;;;;;;107.90;49.70;;;;;;;-6.72;79.69;102297.19;104198;1253;112161;-82
2023/02/06 03:58:32;;;;;;;110.40;51.40;;;;;;;-6.73;79.39;102294.73;102702;1256;1002699;-82
2023/02/06 04:01:00;;;;;;;100.40;50.10;;;;;;;-6.74;79.49;102295.34;103355;1251;139126;-83
2023/02/06 04:03:27;;;;;;;111.50;51.60;;;;;;;-6.75;79.67;102294.61;103369;1254;106605;-84
2023/02/06 04:05:54;;;;;;;115.20;52.30;;;;;;;-6.75;79.48;102296.14;103345;1254;139141;-86
2023/02/06 04:08:21;;;;;;;117.10;52.00;;;;;;;-6.77;79.27;102297.02;103458;1254;111286;-85
2023/02/06 04:10:48;;;;;;;111.80;49.70;;;;;;;-6.80;79.20;102300.03;103469;1256;107373;-85
2023/02/06 04:13:15;;;;;;;121.90;51.70;;;;;;;-6.89;78.97;102298.83;102507;1254;1003718;-84
2023/02/06 04:15:42;;;;;;;127.50;51.90;;;;;;;-6.98;79.12;102300.78;102714;1251;1003390;-84
2023/02/06 04:18:09;;;;;;;119.50;49.20;;;;;;;-7.00;79.46;102296.67;102636;1251;1002936;-83
2023/02/06 04:20:39;;;;;;;124.20;51.40;;;;;;;-7.06;79.26;102297.33;103434;1252;111096;-83
2023/02/06 04:23:07;;;;;;;120.50;51.10;;;;;;;-7.12;79.37;102300.44;102619;1253;1003147;-84
2023/02/06 04:25:34;;;;;;;114.40;49.90;;;;;;;-7.19;79.48;102292.98;103341;1256;140465;-84
2023/02/06 04:28:02;;;;;;;112.30;47.80;;;;;;;-7.18;79.54;102296.91;102678;1256;1002645;-84
2023/02/06 04:30:29;;;;;;;113.60;48.90;;;;;;;-7.20;79.64;102294.20;103276;1253;139214;-85
2023/02/06 04:32:56;;;;;;;106.30;46.30;;;;;;;-7.21;79.71;102295.51;103495;1256;111018;-84
2023/02/06 04:35:23;;;;;;;105.10;46.50;;;;;;;-7.22;79.89;102294.63;103393;1252;106854;-83
2023/02/06 04:37:50;;;;;;;88.10;43.20;;;;;;;-7.23;79.69;102297.07;103307;1253;138797;-82
2023/02/06 04:40:17;;;;;;;88.20;42.50;;;;;;;-7.26;79.79;102296.81;103391;1254;107726;-83
2023/02/06 04:42:44;;;;;;;92.50;42.80;;;;;;;-7.28;79.86;102293.81;103320;1251;138802;-85
2023/02/06 04:45:11;;;;;;;110.60;45.90;;;;;;;-7.29;80.06;102291.77;103381;1253;110614;-86
2023/02/06 04:47:38;;;;;;;112.40;46.40;;;;;;;-7.24;80.39;102289.91;103308;1251;139247;-84
2023/02/06 04:50:06;;;;;;;102.30;43.90;;;;;;;-7.22;80.18;102289.04;103477;1254;97800;-82
2023/02/06 04:52:33;;;;;;;121.30;43.10;;;;;;;-7.28;79.97;102285.09;103395;1256;105961;-83
2023/02/06 04:55:00;;;;;;;96.40;43.90;;;;;;;-7.34;79.84;102285.13;103282;1256;139004;-84
2023/02/06 04:57:27;;;;;;;100.60;41.90;;;;;;;-7.38;79.85;102286.88;102709;1253;1002995;-82
2023/02/06 04:59:54;;;;;;;114.60;42.70;;;;;;;-7.41;79.86;102293.41;103299;1255;139402;-83
2023/02/06 05:02:21;;;;;;;100.20;42.50;;;;;;;-7.45;79.91;102298.17;103474;1254;97814;-85
2023/02/06 05:04:48;;;;;;;109.00;42.70;;;;;;;-7.47;80.26;102299.77;102611;1254;1003379;-85
2023/02/06 05:07:15;;;;;;;104.50;41.70;;;;;;;-7.47;80.30;102296.88;103304;1253;139117;-85
2023/02/06 05:09:42;;;;;;;113.90;42.80;;;;;;;-7.50;80.33;102296.17;103307;1253;111451;-83
2023/02/06 05:12:09;;;;;;;107.20;41.50;;;;;;;-7.52;80.33;102299.56;102537;1252;1003737;-86
2023/02/06 05:14:38;;;;;;;96.80;42.80;;;;;;;-7.54;80.40;102300.41;102639;1253;1002955;-85
2023/02/06 05:17:05;;;;;;;102.70;44.80;;;;;;;-7.51;80.72;102302.95;102550;1254;1002767;-85
2023/02/06 05:19:32;;;;;;;112.00;45.30;;;;;;;-7.46;81.21;102303.86;103245;1253;139331;-84
2023/02/06 05:21:59;;;;;;;105.20;44.40;;;;;;;-7.42;80.95;102304.80;103372;1254;109412;-84
2023/02/06 05:24:26;;;;;;;113.60;45.40;;;;;;;-7.48;80.52;102308.30;103285;1253;139263;-83
2023/02/06 05:26:56;;;;;;;108.80;45.70;;;;;;;-7.52;80.53;102310.35;101945;1256;1014828;-84
2023/02/06 05:29:23;;;;;;;119.80;48.10;;;;;;;-7.52;80.60;102307.64;103463;1252;109065;-83
2023/02/06 05:31:50;;;;;;;123.80;50.00;;;;;;;-7.52;80.99;102310.87;103340;1253;137816;-84
2023/02/06 05:34:17;;;;;;;119.00;49.30;;;;;;;-7.50;80.99;102310.03;103438;1253;111744;-84
2023/02/06 05:36:44;;;;;;;123.60;50.50;;;;;;;-7.48;81.09;102311.20;103327;1253;139121;-85
2023/02/06 05:39:11;;;;;;;122.60;50.60;;;;;;;-7.48;81.00;102314.35;103470;1255;97979;-84
2023/02/06 05:41:38;;;;;;;135.40;51.30;;;;;;;-7.44;81.36;102315.48;103282;1251;139075;-80
2023/02/06 05:44:05;;;;;;;124.10;49.90;;;;;;;-7.40;81.22;102317.16;103415;1256;97848;-81
2023/02/06 05:46:32;;;;;;;122.30;48.90;;;;;;;-7.37;81.25;102315.32;102699;1255;1003313;-82
2023/02/06 05:48:59;;;;;;;115.70;48.10;;;;;;;-7.35;81.21;102316.89;102588;1251;1003328;-82
2023/02/06 05:51:26;;;;;;;112.30;46.10;;;;;;;-7.36;80.92;102319.80;103478;1253;97783;-84
2023/02/06 05:53:53;;;;;;;116.30;43.70;;;;;;;-7.38;80.73;102322.05;101878;1254;1003885;-86
2023/02/06 05:56:21;;;;;;;116.60;42.20;;;;;;;-7.41;80.59;102320.80;102640;1254;1003241;-85
2023/02/06 05:58:48;;;;;;;102.30;42.70;;;;;;;-7.44;80.54;102321.73;101796;1251;1003533;-86
2023/02/06 06:01:15;;;;;;;103.20;43.10;;;;;;;-7.45;80.47;102320.02;103109;1253;139467;-86
2023/02/06 06:03:41;;;;;;;98.00;44.10;;;;;;;-7.44;80.66;102318.58;102702;1251;1002945;-85
2023/02/06 06:06:09;;;;;;;101.30;43.10;;;;;;;-7.40;80.87;102319.98;103239;1253;142029;-79
2023/02/06 06:08:37;;;;;;;110.10;44.10;;;;;;;-7.39;80.80;102319.27;103549;1251;97784;-83
2023/02/06 06:11:03;;;;;;;97.80;38.70;;;;;;;-7.40;80.52;102320.23;102684;1252;1002504;-81
2023/02/06 06:13:31;;;;;;;96.00;41.70;;;;;;;-7.47;80.25;102320.56;103235;1257;139879;-77
2023/02/06 06:15:58;;;;;;;98.30;40.60;;;;;;;-7.48;80.64;102328.07;102557;1256;1003161;-77
2023/02/06 06:18:24;;;;;;;97.10;41.40;;;;;;;-7.48;80.58;102328.88;101800;1253;1003821;-81
2023/02/06 06:20:52;;;;;;;100.90;40.30;;;;;;;-7.53;80.42;102329.75;102633;1254;1003216;-82
2023/02/06 06:23:19;;;;;;;97.90;40.90;;;;;;;-7.56;80.40;102323.02;102002;1256;1005186;-82
2023/02/06 06:25:47;;;;;;;109.90;41.60;;;;;;;-7.52;81.03;102324.05;102564;1251;1003472;-85
2023/02/06 06:28:15;;;;;;;103.70;44.10;;;;;;;-7.49;80.88;102329.14;103435;1253;98308;-84
2023/02/06 06:30:42;;;;;;;106.90;43.90;;;;;;;-7.48;80.92;102330.74;102606;1254;1002616;-86
2023/02/06 06:33:09;;;;;;;94.80;41.50;;;;;;;-7.47;80.83;102328.63;103400;1256;97913;-85
2023/02/06 06:35:36;;;;;;;99.60;38.90;;;;;;;-7.44;81.02;102325.16;103357;1251;140643;-83
2023/02/06 06:38:03;;;;;;;93.20;40.60;;;;;;;-7.40;81.12;102324.94;102620;1253;1002921;-79
2023/02/06 06:40:30;;;;;;;93.70;40.60;;;;;;;-7.39;81.12;102323.65;103319;1256;97815;-79
2023/02/06 06:42:57;;;;;;;91.60;37.70;;;;;;;-7.39;80.87;102320.27;103348;1253;138855;-80
2023/02/06 06:45:24;;;;;;;86.80;37.70;;;;;;;-7.34;81.26;102320.49;102659;1253;1003361;-83
2023/02/06 06:47:51;;;;;;;80.10;31.60;;;;;;;-7.26;81.33;102328.29;103393;1253;139632;-84
2023/02/06 06:50:18;;;;;;;93.90;32.90;;;;;;;-7.24;81.16;102334.17;102651;1255;1002595;-84
2023/02/06 06:52:45;;;;;;;79.20;34.20;;;;;;;-7.26;80.79;102336.73;102678;1256;1002853;-82
2023/02/06 06:55:12;;;;;;;80.60;34.40;;;;;;;-7.26;80.97;102336.21;103271;1256;139089;-82
2023/02/06 06:57:39;;;;;;;91.80;33.70;;;;;;;-7.22;80.95;102339.20;102620;1255;1002794;-81
2023/02/06 07:00:09;;;;;;;102.60;33.60;;;;;;;-7.23;80.84;102347.25;102474;1253;1003328;-83
2023/02/06 07:02:36;;;;;;;100.00;37.10;;;;;;;-7.21;81.09;102346.56;101790;1253;1003983;-80
2023/02/06 07:05:03;;;;;;;96.70;35.80;;;;;;;-7.16;81.23;102352.33;103230;1253;97693;-78
2023/02/06 07:07:30;;;;;;;85.70;35.20;;;;;;;-7.08;81.55;102358.86;103099;1252;139745;-76
2023/02/06 07:09:58;;;;;;;90.40;35.00;;;;;;;-7.00;81.58;102363.68;103033;1253;97798;-73
2023/02/06 07:12:25;;;;;;;90.10;35.90;;;;;;;-6.91;81.77;102364.80;103000;1257;138704;-75
2023/02/06 07:14:52;;;;;;;82.50;33.40;;;;;;;-6.85;81.69;102366.95;103139;1253;107222;-80
2023/02/06 07:17:19;;;;;;;79.00;33.60;;;;;;;-6.80;81.56;102361.55;103197;1256;97795;-74
2023/02/06 07:19:47;;;;;;;89.20;36.00;;;;;;;-6.76;81.56;102361.69;103078;1253;138925;-80
2023/02/06 07:22:14;;;;;;;91.30;36.10;;;;;;;-6.72;81.26;102360.66;103261;1253;97687;-85
2023/02/06 07:24:41;;;;;;;86.30;37.30;;;;;;;-6.72;81.04;102359.42;103210;1254;138907;-77
2023/02/06 07:27:08;;;;;;;88.70;37.60;;;;;;;-6.67;81.53;102362.30;103263;1253;107612;-80
2023/02/06 07:29:36;;;;;;;92.40;39.30;;;;;;;-6.56;81.86;102364.75;102349;1256;1003416;-86
2023/02/06 07:32:04;;;;;;;90.10;36.60;;;;;;;-6.47;81.69;102361.23;102582;1256;1002641;-81
2023/02/06 07:34:31;;;;;;;99.20;35.30;;;;;;;-6.36;82.01;102361.81;103340;1256;97899;-80
2023/02/06 07:36:59;;;;;;;110.10;35.40;;;;;;;-6.28;81.50;102362.71;102796;1255;1002555;-81
2023/02/06 07:39:26;;;;;;;84.40;37.20;;;;;;;-6.25;81.23;102364.45;102519;1253;1004092;-81
2023/02/06 07:41:53;;;;;;;90.10;35.80;;;;;;;-6.18;81.44;102362.67;103092;1253;139210;-74
2023/02/06 07:44:20;;;;;;;95.50;38.50;;;;;;;-6.12;81.42;102360.56;102562;1253;1002949;-83
2023/02/06 07:46:47;;;;;;;77.00;34.60;;;;;;;-6.00;81.83;102356.95;102603;1254;1003336;-75
2023/02/06 07:49:15;;;;;;;84.80;34.80;;;;;;;-5.91;81.91;102357.79;101661;1253;1002962;-78
2023/02/06 07:51:42;;;;;;;88.10;34.30;;;;;;;-5.82;81.79;102356.68;103260;1253;107734;-78
2023/02/06 07:54:10;;;;;;;89.50;38.10;;;;;;;-5.75;81.56;102358.50;102466;1257;1003463;-78
2023/02/06 07:56:37;;;;;;;87.40;36.40;;;;;;;-5.65;81.63;102359.54;103279;1254;107843;-77
2023/02/06 07:59:04;;;;;;;83.70;36.50;;;;;;;-5.54;81.90;102360.98;102583;1257;1003694;-77
2023/02/06 08:01:31;;;;;;;91.40;37.70;;;;;;;-5.37;82.05;102355.27;103120;1253;139188;-76
2023/02/06 08:03:58;;;;;;;96.30;39.70;;;;;;;-5.22;81.67;102351.67;103099;1254;109655;-76
2023/02/06 08:06:26;;;;;;;88.70;37.70;;;;;;;-5.08;81.46;102357.20;103105;1256;141505;-77
2023/02/06 08:08:55;;;;;;;105.50;37.80;;;;;;;-4.93;81.41;102361.91;102484;1253;1003752;-77
2023/02/06 08:11:24;;;;;;;83.70;36.50;;;;;;;-4.76;81.30;102360.92;103252;1253;97693;-75
2023/02/06 08:13:51;;;;;;;87.60;36.80;;;;;;;-4.66;81.30;102358.87;102405;1256;1015372;-77
2023/02/06 08:16:20;;;;;;;88.50;38.00;;;;;;;-4.51;81.11;102357.44;103119;1257;107969;-80
2023/02/06 08:18:48;;;;;;;88.60;37.10;;;;;;;-4.37;80.70;102361.03;103978;1257;139183;-79
2023/02/06 08:21:19;;;;;;;86.20;36.90;;;;;;;-4.24;80.55;102361.65;103236;1253;107979;-80
2023/02/06 08:23:50;;;;;;;90.90;38.70;;;;;;;-4.10;80.67;102361.63;102051;1253;1003239;-80
2023/02/06 08:26:18;;;;;;;85.10;37.40;;;;;;;-3.95;80.24;102360.01;103202;1253;110629;-82
2023/02/06 08:28:47;;;;;;;94.70;42.30;;;;;;;-3.86;80.18;102360.58;102313;1254;1003722;-84
2023/02/06 08:31:16;;;;;;;92.80;40.20;;;;;;;-3.76;79.95;102353.49;102385;1256;1003087;-80
2023/02/06 08:33:44;;;;;;;102.00;44.50;;;;;;;-3.72;79.82;102352.59;103068;1253;106780;-77
2023/02/06 08:36:12;;;;;;;88.90;40.70;;;;;;;-3.69;79.66;102348.69;103046;1253;139178;-82
2023/02/06 08:38:40;;;;;;;90.00;41.30;;;;;;;-3.65;79.36;102342.62;103160;1257;110118;-78
2023/02/06 08:41:17;;;;;;;93.10;39.00;;;;;;;-3.56;79.54;102344.98;103040;1253;108717;-78
2023/02/06 08:43:44;;;;;;;93.60;36.40;;;;;;;-3.48;79.74;102346.66;103113;1253;138996;-78
2023/02/06 08:46:11;;;;;;;92.30;40.70;;;;;;;-3.36;79.48;102348.39;103106;1253;108072;-77
2023/02/06 08:48:38;;;;;;;82.30;38.80;;;;;;;-3.12;79.44;102346.86;103055;1253;139056;-80
2023/02/06 08:51:07;;;;;;;93.50;40.30;;;;;;;-2.96;79.41;102350.16;103254;1257;112250;-83
2023/02/06 08:53:35;;;;;;;88.20;41.00;;;;;;;-2.76;79.16;102350.59;101590;1255;1015424;-80
2023/02/06 08:56:03;;;;;;;85.40;40.40;;;;;;;-2.55;79.70;102345.29;103152;1257;97906;-86
2023/02/06 08:58:32;;;;;;;82.20;38.50;;;;;;;-2.38;79.01;102344.63;103196;1256;107043;-79
2023/02/06 09:01:05;;;;;;;80.90;38.60;;;;;;;-2.22;78.85;102344.49;102205;1256;1004046;-83
2023/02/06 09:03:32;;;;;;;85.90;39.20;;;;;;;-2.00;78.30;102344.67;103199;1254;111116;-81
2023/02/06 09:06:04;;;;;;;80.90;38.10;;;;;;;-1.65;77.66;102342.36;102365;1257;1003642;-79
2023/02/06 09:08:36;;;;;;;77.40;38.30;;;;;;;-1.41;76.56;102341.17;103238;1258;97887;-81
2023/02/06 09:11:08;;;;;;;81.50;38.60;;;;;;;-1.05;76.86;102343.14;103203;1253;108026;-84
2023/02/06 09:13:35;;;;;;;80.40;40.00;;;;;;;-0.68;76.54;102341.35;103187;1253;138711;-81
2023/02/06 09:16:03;;;;;;;76.40;39.60;;;;;;;-0.38;75.70;102339.98;103277;1257;111459;-84
2023/02/06 09:18:30;;;;;;;76.80;39.70;;;;;;;0.07;75.52;102346.94;103165;1256;138786;-82
2023/02/06 09:21:08;;;;;;;75.00;39.00;;;;;;;0.62;74.27;102351.23;103295;1253;97800;-83
2023/02/06 09:23:35;;;;;;;86.80;45.20;;;;;;;1.14;73.47;102346.14;103108;1253;137815;-76
2023/02/06 09:26:03;;;;;;;87.10;45.20;;;;;;;1.74;72.79;102344.21;103192;1257;96917;-75
2023/02/06 09:28:30;;;;;;;83.00;48.60;;;;;;;2.40;71.83;102338.70;103316;1254;111255;-75
2023/02/06 09:30:57;;;;;;;82.20;44.10;;;;;;;3.01;70.82;102333.34;102334;1259;1003444;-75
2023/02/06 09:33:25;;;;;;;67.50;37.70;;;;;;;3.39;69.74;102326.78;103099;1253;98058;-75
2023/02/06 09:36:02;;;;;;;67.90;39.00;;;;;;;3.71;69.47;102326.55;103198;1256;139525;-76
2023/02/06 09:38:29;;;;;;;70.60;39.20;;;;;;;3.97;68.25;102330.90;103214;1253;98021;-75
2023/02/06 09:40:58;;;;;;;69.80;38.30;;;;;;;4.00;67.12;102334.94;103237;1254;111580;-75
2023/02/06 09:43:25;;;;;;;67.60;38.90;;;;;;;4.07;67.52;102335.65;103092;1259;137936;-75
2023/02/06 09:45:58;;;;;;;67.50;39.60;;;;;;;4.41;67.53;102334.52;103329;1257;98324;-75
2023/02/06 09:48:30;;;;;;;68.10;38.10;;;;;;;4.78;67.02;102333.57;103040;1253;139510;-77
2023/02/06 09:51:07;;;;;;;62.80;35.60;;;;;;;4.99;65.94;102335.63;103304;1257;97797;-77
2023/02/06 09:53:44;;;;;;;66.20;37.50;;;;;;;5.01;64.79;102334.98;103114;1258;137923;-80
2023/02/06 09:56:20;;;;;;;66.40;37.20;;;;;;;5.01;63.83;102332.23;103361;1256;107663;-79
2023/02/06 09:58:53;;;;;;;70.00;37.90;;;;;;;4.98;63.58;102332.34;103794;1257;97924;-78
2023/02/06 10:01:26;;;;;;;63.20;37.90;;;;;;;5.19;63.78;102331.97;103088;1253;138717;-79
2023/02/06 10:04:12;;;;;;;61.90;37.70;;;;;;;5.38;63.31;102334.99;103227;1253;97714;-76
2023/02/06 10:06:45;;;;;;;62.70;37.20;;;;;;;5.77;63.20;102335.48;103219;1254;139635;-74
2023/02/06 10:09:17;;;;;;;62.30;37.90;;;;;;;6.05;62.52;102330.75;102461;1257;1003437;-72
2023/02/06 10:11:49;;;;;;;61.80;37.40;;;;;;;6.33;62.32;102325.77;103188;1256;138834;-73
2023/02/06 10:14:23;;;;;;;66.10;38.30;;;;;;;6.89;62.43;102320.33;103279;1253;107360;-82
2023/02/06 10:16:53;;;;;;;66.20;39.30;;;;;;;7.02;60.77;102318.48;103241;1257;97739;-78
2023/02/06 10:19:25;;;;;;;75.00;40.30;;;;;;;6.73;59.45;102318.34;103230;1253;137866;-72
2023/02/06 10:22:01;;;;;;;66.60;39.10;;;;;;;6.37;59.25;102318.24;103260;1253;105834;-74
2023/02/06 10:24:36;;;;;;;70.00;40.40;;;;;;;6.43;60.53;102312.64;103225;1253;137841;-73
2023/02/06 10:27:13;;;;;;;73.20;41.50;;;;;;;6.75;60.90;102308.52;103242;1253;107927;-77
2023/02/06 10:29:42;;;;;;;67.40;40.10;;;;;;;6.80;60.15;102312.59;103080;1254;138142;-75
2023/02/06 10:32:26;;;;;;;70.20;40.90;;;;;;;6.64;59.14;102311.98;102491;1253;1002473;-77
2023/02/06 10:35:11;;;;;;;68.40;38.70;;;;;;;6.51;59.12;102316.08;103206;1256;106854;-76
2023/02/06 10:37:58;;;;;;;68.80;38.60;;;;;;;6.29;58.31;102320.33;103093;1253;139198;-77
2023/02/06 10:40:39;;;;;;;67.90;38.50;;;;;;;6.04;58.71;102317.96;103275;1253;106594;-78
2023/02/06 10:43:17;;;;;;;62.40;37.60;;;;;;;5.74;58.44;102314.39;103163;1258;137921;-74
2023/02/06 10:45:51;;;;;;;67.70;38.80;;;;;;;5.41;58.40;102311.08;103341;1257;112411;-79
2023/02/06 10:48:28;;;;;;;65.70;38.00;;;;;;;5.10;59.01;102316.61;103049;1256;139270;-79
2023/02/06 10:50:59;;;;;;;62.50;37.10;;;;;;;4.76;58.83;102313.55;103206;1254;98092;-75
2023/02/06 10:53:30;;;;;;;69.00;39.00;;;;;;;4.21;58.40;102313.31;102495;1253;1003110;-76
2023/02/06 10:56:02;;;;;;;69.30;38.80;;;;;;;3.78;59.19;102315.90;103348;1253;97845;-76
2023/02/06 10:58:35;;;;;;;68.00;38.60;;;;;;;3.41;59.75;102317.92;103313;1253;111111;-77
2023/02/06 11:01:04;;;;;;;67.40;39.20;;;;;;;3.09;60.17;102320.02;103150;1253;137906;-76
2023/02/06 11:03:55;;;;;;;68.40;39.00;;;;;;;2.78;60.78;102311.09;103280;1253;99508;-74